Amor, Minnesota
Current Conditions -  °F | °C
As of 4:54 PM on Saturday 20 Dec 2014 (Local Time) from KFFM Reporting Station
Haze Haze  
Wind Chill: -7°   Ceiling: 800
Heat Index: -1°   Visibility: 5mi
Dew Point: -2°   Wind: 15mph
Humidity: 93%   Direction: 170°S
Pressure: 30.01"   Gusts: NA
Location:  46.3166°N, 95.7183°W
Report Text: KFFM 202254Z AUTO 17013KT 5SM BR OVC008 M01/M02 A3001 RMK AO2
Loading
Personal Weather Stations






























Interactive Weather Map New forecast layout! Learn more

10-Day Weather Forecast

Advertisements
Track Severe Weather on mobile